sensor_id;sensor_type;location;lat;lon;timestamp;P1;durP1;ratioP1;P2;durP2;ratioP2
65715;SDS011;63484;52.054;8.518;2022-11-20T00:04:00;33.83;;;13.60;;
65715;SDS011;63484;52.054;8.518;2022-11-20T00:09:01;31.73;;;14.30;;
65715;SDS011;63484;52.054;8.518;2022-11-20T00:14:02;32.40;;;12.53;;
65715;SDS011;63484;52.054;8.518;2022-11-20T00:19:02;31.80;;;13.23;;
65715;SDS011;63484;52.054;8.518;2022-11-20T00:24:02;28.67;;;12.80;;
65715;SDS011;63484;52.054;8.518;2022-11-20T00:29:03;27.30;;;12.73;;
65715;SDS011;63484;52.054;8.518;2022-11-20T00:34:03;33.90;;;13.20;;
65715;SDS011;63484;52.054;8.518;2022-11-20T00:39:04;26.47;;;12.83;;
65715;SDS011;63484;52.054;8.518;2022-11-20T00:44:04;30.87;;;13.27;;
65715;SDS011;63484;52.054;8.518;2022-11-20T00:49:04;32.53;;;13.43;;
65715;SDS011;63484;52.054;8.518;2022-11-20T00:54:05;29.40;;;12.47;;
65715;SDS011;63484;52.054;8.518;2022-11-20T00:59:05;28.53;;;13.00;;
65715;SDS011;63484;52.054;8.518;2022-11-20T01:04:05;29.63;;;13.17;;
65715;SDS011;63484;52.054;8.518;2022-11-20T01:09:07;30.83;;;12.80;;
65715;SDS011;63484;52.054;8.518;2022-11-20T01:14:15;30.80;;;12.47;;
65715;SDS011;63484;52.054;8.518;2022-11-20T01:24:42;28.53;;;11.70;;
65715;SDS011;63484;52.054;8.518;2022-11-20T01:29:42;27.30;;;12.07;;
65715;SDS011;63484;52.054;8.518;2022-11-20T01:34:43;33.17;;;13.10;;
65715;SDS011;63484;52.054;8.518;2022-11-20T01:39:43;35.37;;;11.63;;
65715;SDS011;63484;52.054;8.518;2022-11-20T01:44:51;32.47;;;12.40;;
65715;SDS011;63484;52.054;8.518;2022-11-20T01:49:52;29.30;;;11.77;;
65715;SDS011;63484;52.054;8.518;2022-11-20T01:55:00;35.93;;;13.63;;
65715;SDS011;63484;52.054;8.518;2022-11-20T02:00:05;35.17;;;13.43;;
65715;SDS011;63484;52.054;8.518;2022-11-20T02:10:39;35.80;;;13.10;;
65715;SDS011;63484;52.054;8.518;2022-11-20T02:15:39;29.43;;;12.27;;
65715;SDS011;63484;52.054;8.518;2022-11-20T02:20:41;26.23;;;11.70;;
65715;SDS011;63484;52.054;8.518;2022-11-20T02:25:45;27.33;;;12.47;;
65715;SDS011;63484;52.054;8.518;2022-11-20T02:30:47;32.60;;;12.23;;
65715;SDS011;63484;52.054;8.518;2022-11-20T02:35:47;27.33;;;12.10;;
65715;SDS011;63484;52.054;8.518;2022-11-20T02:40:47;28.17;;;11.53;;
65715;SDS011;63484;52.054;8.518;2022-11-20T02:45:48;29.17;;;12.43;;
65715;SDS011;63484;52.054;8.518;2022-11-20T02:50:48;27.10;;;11.47;;
65715;SDS011;63484;52.054;8.518;2022-11-20T02:55:49;30.27;;;11.87;;
65715;SDS011;63484;52.054;8.518;2022-11-20T03:00:49;29.33;;;11.03;;
65715;SDS011;63484;52.054;8.518;2022-11-20T03:05:49;29.03;;;12.53;;
65715;SDS011;63484;52.054;8.518;2022-11-20T03:10:49;31.63;;;12.30;;
65715;SDS011;63484;52.054;8.518;2022-11-20T03:15:50;24.10;;;10.50;;
65715;SDS011;63484;52.054;8.518;2022-11-20T03:20:56;28.63;;;11.90;;
65715;SDS011;63484;52.054;8.518;2022-11-20T03:26:07;28.07;;;11.57;;
65715;SDS011;63484;52.054;8.518;2022-11-20T03:31:09;31.67;;;12.13;;
65715;SDS011;63484;52.054;8.518;2022-11-20T03:36:11;27.63;;;11.03;;
65715;SDS011;63484;52.054;8.518;2022-11-20T03:41:14;23.27;;;10.63;;
65715;SDS011;63484;52.054;8.518;2022-11-20T03:46:18;26.93;;;11.37;;
65715;SDS011;63484;52.054;8.518;2022-11-20T03:51:31;31.67;;;11.47;;
65715;SDS011;63484;52.054;8.518;2022-11-20T03:56:34;25.10;;;10.77;;
65715;SDS011;63484;52.054;8.518;2022-11-20T04:01:36;26.77;;;10.80;;
65715;SDS011;63484;52.054;8.518;2022-11-20T04:06:37;27.60;;;11.77;;
65715;SDS011;63484;52.054;8.518;2022-11-20T04:11:39;29.37;;;11.37;;
65715;SDS011;63484;52.054;8.518;2022-11-20T04:16:40;33.30;;;12.00;;
65715;SDS011;63484;52.054;8.518;2022-11-20T04:21:41;26.17;;;11.20;;
65715;SDS011;63484;52.054;8.518;2022-11-20T04:26:43;28.23;;;11.90;;
65715;SDS011;63484;52.054;8.518;2022-11-20T04:31:43;27.23;;;11.77;;
65715;SDS011;63484;52.054;8.518;2022-11-20T04:36:43;26.90;;;11.03;;
65715;SDS011;63484;52.054;8.518;2022-11-20T04:41:44;25.63;;;10.70;;
65715;SDS011;63484;52.054;8.518;2022-11-20T04:46:44;29.63;;;10.83;;
65715;SDS011;63484;52.054;8.518;2022-11-20T04:51:44;25.83;;;11.90;;
65715;SDS011;63484;52.054;8.518;2022-11-20T04:56:45;27.77;;;10.97;;
65715;SDS011;63484;52.054;8.518;2022-11-20T05:01:47;23.90;;;11.07;;
65715;SDS011;63484;52.054;8.518;2022-11-20T05:06:49;29.73;;;11.47;;
65715;SDS011;63484;52.054;8.518;2022-11-20T05:11:49;28.33;;;11.30;;
65715;SDS011;63484;52.054;8.518;2022-11-20T05:16:50;29.80;;;11.37;;
65715;SDS011;63484;52.054;8.518;2022-11-20T05:21:50;29.33;;;10.37;;
65715;SDS011;63484;52.054;8.518;2022-11-20T05:26:50;26.20;;;11.10;;
65715;SDS011;63484;52.054;8.518;2022-11-20T05:31:51;23.03;;;10.17;;
65715;SDS011;63484;52.054;8.518;2022-11-20T05:36:51;25.87;;;11.20;;
65715;SDS011;63484;52.054;8.518;2022-11-20T05:41:51;30.93;;;11.90;;
65715;SDS011;63484;52.054;8.518;2022-11-20T05:47:12;27.53;;;12.03;;
65715;SDS011;63484;52.054;8.518;2022-11-20T05:52:12;29.07;;;11.50;;
65715;SDS011;63484;52.054;8.518;2022-11-20T05:57:12;24.77;;;11.93;;
65715;SDS011;63484;52.054;8.518;2022-11-20T06:02:13;25.73;;;11.47;;
65715;SDS011;63484;52.054;8.518;2022-11-20T06:07:13;31.43;;;12.47;;
65715;SDS011;63484;52.054;8.518;2022-11-20T06:12:13;27.70;;;12.03;;
65715;SDS011;63484;52.054;8.518;2022-11-20T06:17:14;24.67;;;11.27;;
65715;SDS011;63484;52.054;8.518;2022-11-20T06:22:14;30.37;;;11.73;;
65715;SDS011;63484;52.054;8.518;2022-11-20T06:27:15;27.73;;;11.50;;
65715;SDS011;63484;52.054;8.518;2022-11-20T06:32:15;30.57;;;12.57;;
65715;SDS011;63484;52.054;8.518;2022-11-20T06:37:16;30.43;;;13.10;;
65715;SDS011;63484;52.054;8.518;2022-11-20T06:42:16;29.63;;;11.57;;
65715;SDS011;63484;52.054;8.518;2022-11-20T06:47:16;28.93;;;12.13;;
65715;SDS011;63484;52.054;8.518;2022-11-20T06:52:17;29.80;;;12.80;;
65715;SDS011;63484;52.054;8.518;2022-11-20T06:57:17;30.40;;;12.43;;
65715;SDS011;63484;52.054;8.518;2022-11-20T07:02:17;30.10;;;11.97;;
65715;SDS011;63484;52.054;8.518;2022-11-20T07:07:18;27.10;;;12.60;;
65715;SDS011;63484;52.054;8.518;2022-11-20T07:12:18;27.33;;;12.33;;
65715;SDS011;63484;52.054;8.518;2022-11-20T07:17:18;31.03;;;11.30;;
65715;SDS011;63484;52.054;8.518;2022-11-20T07:22:19;27.40;;;12.10;;
65715;SDS011;63484;52.054;8.518;2022-11-20T07:27:21;26.43;;;12.37;;
65715;SDS011;63484;52.054;8.518;2022-11-20T07:32:22;28.43;;;11.50;;
65715;SDS011;63484;52.054;8.518;2022-11-20T07:37:22;27.10;;;12.17;;
65715;SDS011;63484;52.054;8.518;2022-11-20T07:42:23;27.33;;;12.47;;
65715;SDS011;63484;52.054;8.518;2022-11-20T07:47:24;28.97;;;12.93;;
65715;SDS011;63484;52.054;8.518;2022-11-20T07:52:25;34.37;;;14.43;;
65715;SDS011;63484;52.054;8.518;2022-11-20T07:57:25;28.90;;;13.57;;
65715;SDS011;63484;52.054;8.518;2022-11-20T08:02:26;28.20;;;12.63;;
65715;SDS011;63484;52.054;8.518;2022-11-20T08:07:27;32.13;;;13.40;;
65715;SDS011;63484;52.054;8.518;2022-11-20T08:12:27;31.60;;;13.63;;
65715;SDS011;63484;52.054;8.518;2022-11-20T08:17:46;28.87;;;13.83;;
65715;SDS011;63484;52.054;8.518;2022-11-20T08:22:46;34.20;;;13.70;;
65715;SDS011;63484;52.054;8.518;2022-11-20T08:27:47;28.10;;;12.97;;
65715;SDS011;63484;52.054;8.518;2022-11-20T08:32:47;32.17;;;13.17;;
65715;SDS011;63484;52.054;8.518;2022-11-20T08:37:47;27.73;;;14.27;;
65715;SDS011;63484;52.054;8.518;2022-11-20T08:42:48;33.93;;;15.63;;
65715;SDS011;63484;52.054;8.518;2022-11-20T08:47:50;33.67;;;14.43;;
65715;SDS011;63484;52.054;8.518;2022-11-20T08:52:50;30.77;;;14.37;;
65715;SDS011;63484;52.054;8.518;2022-11-20T08:57:50;32.07;;;14.00;;
65715;SDS011;63484;52.054;8.518;2022-11-20T09:02:51;30.67;;;13.07;;
65715;SDS011;63484;52.054;8.518;2022-11-20T09:07:55;22.43;;;10.73;;
65715;SDS011;63484;52.054;8.518;2022-11-20T09:12:56;21.70;;;10.77;;
65715;SDS011;63484;52.054;8.518;2022-11-20T09:17:58;20.17;;;9.37;;
65715;SDS011;63484;52.054;8.518;2022-11-20T09:22:59;20.77;;;9.60;;
65715;SDS011;63484;52.054;8.518;2022-11-20T09:28:00;19.97;;;9.07;;
65715;SDS011;63484;52.054;8.518;2022-11-20T09:33:00;19.73;;;9.77;;
65715;SDS011;63484;52.054;8.518;2022-11-20T09:38:04;20.67;;;10.03;;
65715;SDS011;63484;52.054;8.518;2022-11-20T09:43:12;20.47;;;8.73;;
65715;SDS011;63484;52.054;8.518;2022-11-20T09:54:05;20.03;;;8.73;;
65715;SDS011;63484;52.054;8.518;2022-11-20T09:59:26;21.27;;;8.10;;
65715;SDS011;63484;52.054;8.518;2022-11-20T10:04:52;20.57;;;9.50;;
65715;SDS011;63484;52.054;8.518;2022-11-20T10:09:57;19.80;;;9.33;;
65715;SDS011;63484;52.054;8.518;2022-11-20T10:26:34;22.53;;;8.97;;
65715;SDS011;63484;52.054;8.518;2022-11-20T10:31:42;18.60;;;8.97;;
65715;SDS011;63484;52.054;8.518;2022-11-20T10:36:56;17.27;;;8.10;;
65715;SDS011;63484;52.054;8.518;2022-11-20T10:42:03;15.60;;;7.80;;
65715;SDS011;63484;52.054;8.518;2022-11-20T10:47:15;12.73;;;6.57;;
65715;SDS011;63484;52.054;8.518;2022-11-20T10:52:22;14.20;;;7.20;;
65715;SDS011;63484;52.054;8.518;2022-11-20T11:07:49;13.60;;;6.67;;
65715;SDS011;63484;52.054;8.518;2022-11-20T11:12:52;12.68;;;6.63;;
65715;SDS011;63484;52.054;8.518;2022-11-20T11:17:52;13.27;;;7.13;;
65715;SDS011;63484;52.054;8.518;2022-11-20T11:22:57;13.23;;;6.17;;
65715;SDS011;63484;52.054;8.518;2022-11-20T11:28:00;12.70;;;6.53;;
65715;SDS011;63484;52.054;8.518;2022-11-20T11:33:04;12.23;;;5.80;;
65715;SDS011;63484;52.054;8.518;2022-11-20T11:38:07;14.00;;;6.47;;
65715;SDS011;63484;52.054;8.518;2022-11-20T11:43:22;14.80;;;6.43;;
65715;SDS011;63484;52.054;8.518;2022-11-20T11:48:54;16.30;;;6.60;;
65715;SDS011;63484;52.054;8.518;2022-11-20T11:53:58;12.17;;;6.30;;
65715;SDS011;63484;52.054;8.518;2022-11-20T11:59:01;11.82;;;5.95;;
65715;SDS011;63484;52.054;8.518;2022-11-20T12:09:46;10.50;;;6.03;;
65715;SDS011;63484;52.054;8.518;2022-11-20T12:14:52;10.10;;;5.18;;
65715;SDS011;63484;52.054;8.518;2022-11-20T12:19:55;12.05;;;5.60;;
65715;SDS011;63484;52.054;8.518;2022-11-20T12:25:10;12.88;;;5.45;;
65715;SDS011;63484;52.054;8.518;2022-11-20T12:30:17;10.77;;;5.70;;
65715;SDS011;63484;52.054;8.518;2022-11-20T12:35:35;14.35;;;6.70;;
65715;SDS011;63484;52.054;8.518;2022-11-20T12:46:02;12.88;;;6.20;;
65715;SDS011;63484;52.054;8.518;2022-11-20T12:51:29;14.60;;;7.28;;
65715;SDS011;63484;52.054;8.518;2022-11-20T12:56:43;12.37;;;6.57;;
65715;SDS011;63484;52.054;8.518;2022-11-20T13:01:54;10.60;;;5.32;;
65715;SDS011;63484;52.054;8.518;2022-11-20T13:06:58;14.60;;;6.15;;
65715;SDS011;63484;52.054;8.518;2022-11-20T13:12:03;11.52;;;5.75;;
65715;SDS011;63484;52.054;8.518;2022-11-20T13:17:12;13.77;;;6.65;;
65715;SDS011;63484;52.054;8.518;2022-11-20T13:22:23;11.45;;;6.35;;
65715;SDS011;63484;52.054;8.518;2022-11-20T13:27:27;17.27;;;7.97;;
65715;SDS011;63484;52.054;8.518;2022-11-20T13:32:30;11.27;;;5.57;;
65715;SDS011;63484;52.054;8.518;2022-11-20T13:37:38;13.32;;;5.43;;
65715;SDS011;63484;52.054;8.518;2022-11-20T13:47:47;9.93;;;5.40;;
65715;SDS011;63484;52.054;8.518;2022-11-20T14:03:17;11.10;;;5.93;;
65715;SDS011;63484;52.054;8.518;2022-11-20T14:08:24;12.63;;;6.63;;
65715;SDS011;63484;52.054;8.518;2022-11-20T14:14:10;14.50;;;6.77;;
65715;SDS011;63484;52.054;8.518;2022-11-20T14:24:21;16.87;;;8.07;;
65715;SDS011;63484;52.054;8.518;2022-11-20T14:29:26;27.13;;;9.73;;
65715;SDS011;63484;52.054;8.518;2022-11-20T14:34:29;21.83;;;8.87;;
65715;SDS011;63484;52.054;8.518;2022-11-20T14:44:34;20.83;;;9.87;;
65715;SDS011;63484;52.054;8.518;2022-11-20T14:49:35;27.07;;;12.03;;
65715;SDS011;63484;52.054;8.518;2022-11-20T14:54:43;21.47;;;9.43;;
65715;SDS011;63484;52.054;8.518;2022-11-20T14:59:44;22.93;;;10.60;;
65715;SDS011;63484;52.054;8.518;2022-11-20T15:09:46;22.97;;;10.67;;
65715;SDS011;63484;52.054;8.518;2022-11-20T15:14:47;23.83;;;10.93;;
65715;SDS011;63484;52.054;8.518;2022-11-20T15:19:49;21.90;;;10.07;;
65715;SDS011;63484;52.054;8.518;2022-11-20T15:24:51;23.53;;;11.93;;
65715;SDS011;63484;52.054;8.518;2022-11-20T15:29:51;28.60;;;12.43;;
65715;SDS011;63484;52.054;8.518;2022-11-20T15:34:52;27.70;;;12.87;;
65715;SDS011;63484;52.054;8.518;2022-11-20T15:39:52;24.53;;;12.67;;
65715;SDS011;63484;52.054;8.518;2022-11-20T15:44:52;23.80;;;10.90;;
65715;SDS011;63484;52.054;8.518;2022-11-20T15:49:53;28.17;;;11.83;;
65715;SDS011;63484;52.054;8.518;2022-11-20T15:54:54;25.97;;;12.57;;
65715;SDS011;63484;52.054;8.518;2022-11-20T15:59:54;27.93;;;12.10;;
65715;SDS011;63484;52.054;8.518;2022-11-20T16:04:54;25.83;;;12.30;;
65715;SDS011;63484;52.054;8.518;2022-11-20T16:09:55;27.27;;;12.03;;
65715;SDS011;63484;52.054;8.518;2022-11-20T16:14:56;31.50;;;14.90;;
65715;SDS011;63484;52.054;8.518;2022-11-20T16:20:15;30.07;;;13.37;;
65715;SDS011;63484;52.054;8.518;2022-11-20T16:25:15;31.43;;;13.87;;
65715;SDS011;63484;52.054;8.518;2022-11-20T16:30:16;29.50;;;13.20;;
65715;SDS011;63484;52.054;8.518;2022-11-20T16:35:16;28.27;;;12.83;;
65715;SDS011;63484;52.054;8.518;2022-11-20T16:40:17;27.17;;;12.87;;
65715;SDS011;63484;52.054;8.518;2022-11-20T16:45:17;30.10;;;14.43;;
65715;SDS011;63484;52.054;8.518;2022-11-20T16:50:18;34.30;;;13.77;;
65715;SDS011;63484;52.054;8.518;2022-11-20T16:55:18;28.50;;;13.07;;
65715;SDS011;63484;52.054;8.518;2022-11-20T17:00:19;28.33;;;13.53;;
65715;SDS011;63484;52.054;8.518;2022-11-20T17:05:19;28.70;;;12.13;;
65715;SDS011;63484;52.054;8.518;2022-11-20T17:10:19;27.70;;;13.37;;
65715;SDS011;63484;52.054;8.518;2022-11-20T17:15:20;30.13;;;13.37;;
65715;SDS011;63484;52.054;8.518;2022-11-20T17:20:20;28.90;;;12.47;;
65715;SDS011;63484;52.054;8.518;2022-11-20T17:25:20;33.90;;;13.23;;
65715;SDS011;63484;52.054;8.518;2022-11-20T17:30:21;29.63;;;11.87;;
65715;SDS011;63484;52.054;8.518;2022-11-20T17:35:21;30.37;;;14.20;;
65715;SDS011;63484;52.054;8.518;2022-11-20T17:40:22;27.10;;;12.07;;
65715;SDS011;63484;52.054;8.518;2022-11-20T17:45:22;26.90;;;11.87;;
65715;SDS011;63484;52.054;8.518;2022-11-20T17:50:22;33.07;;;13.80;;
65715;SDS011;63484;52.054;8.518;2022-11-20T17:55:23;26.27;;;11.63;;
65715;SDS011;63484;52.054;8.518;2022-11-20T18:00:23;24.73;;;11.27;;
65715;SDS011;63484;52.054;8.518;2022-11-20T18:05:25;24.50;;;11.23;;
65715;SDS011;63484;52.054;8.518;2022-11-20T18:10:27;23.47;;;10.73;;
65715;SDS011;63484;52.054;8.518;2022-11-20T18:15:28;23.30;;;10.47;;
65715;SDS011;63484;52.054;8.518;2022-11-20T18:20:29;23.23;;;9.97;;
65715;SDS011;63484;52.054;8.518;2022-11-20T18:25:29;22.90;;;10.33;;
65715;SDS011;63484;52.054;8.518;2022-11-20T18:30:29;24.87;;;10.43;;
65715;SDS011;63484;52.054;8.518;2022-11-20T18:35:30;22.93;;;10.23;;
65715;SDS011;63484;52.054;8.518;2022-11-20T18:40:30;22.67;;;9.83;;
65715;SDS011;63484;52.054;8.518;2022-11-20T18:45:34;21.08;;;9.60;;
65715;SDS011;63484;52.054;8.518;2022-11-20T18:50:34;26.83;;;11.00;;
65715;SDS011;63484;52.054;8.518;2022-11-20T18:55:34;23.30;;;10.90;;
65715;SDS011;63484;52.054;8.518;2022-11-20T19:00:35;25.07;;;11.10;;
65715;SDS011;63484;52.054;8.518;2022-11-20T19:05:35;29.47;;;12.57;;
65715;SDS011;63484;52.054;8.518;2022-11-20T19:10:37;26.63;;;12.33;;
65715;SDS011;63484;52.054;8.518;2022-11-20T19:15:37;24.53;;;10.53;;
65715;SDS011;63484;52.054;8.518;2022-11-20T19:20:38;28.03;;;12.37;;
65715;SDS011;63484;52.054;8.518;2022-11-20T19:25:38;24.87;;;11.13;;
65715;SDS011;63484;52.054;8.518;2022-11-20T19:30:39;29.23;;;12.73;;
65715;SDS011;63484;52.054;8.518;2022-11-20T19:35:40;28.67;;;12.60;;
65715;SDS011;63484;52.054;8.518;2022-11-20T19:40:41;25.20;;;11.73;;
65715;SDS011;63484;52.054;8.518;2022-11-20T19:45:41;30.77;;;12.63;;
65715;SDS011;63484;52.054;8.518;2022-11-20T19:50:42;26.83;;;12.07;;
65715;SDS011;63484;52.054;8.518;2022-11-20T19:55:53;29.60;;;12.70;;
65715;SDS011;63484;52.054;8.518;2022-11-20T20:00:54;31.47;;;12.73;;
65715;SDS011;63484;52.054;8.518;2022-11-20T20:05:55;27.47;;;12.57;;
65715;SDS011;63484;52.054;8.518;2022-11-20T20:10:55;28.03;;;11.93;;
65715;SDS011;63484;52.054;8.518;2022-11-20T20:15:56;28.10;;;12.30;;
65715;SDS011;63484;52.054;8.518;2022-11-20T20:21:00;31.17;;;12.70;;
65715;SDS011;63484;52.054;8.518;2022-11-20T20:26:02;31.23;;;14.30;;
65715;SDS011;63484;52.054;8.518;2022-11-20T20:31:07;34.97;;;13.83;;
65715;SDS011;63484;52.054;8.518;2022-11-20T20:36:13;31.33;;;12.57;;
65715;SDS011;63484;52.054;8.518;2022-11-20T20:41:17;34.80;;;14.60;;
65715;SDS011;63484;52.054;8.518;2022-11-20T20:46:18;30.95;;;13.73;;
65715;SDS011;63484;52.054;8.518;2022-11-20T20:51:19;33.93;;;14.00;;
65715;SDS011;63484;52.054;8.518;2022-11-20T20:56:19;32.57;;;13.23;;
65715;SDS011;63484;52.054;8.518;2022-11-20T21:01:20;33.50;;;14.33;;
65715;SDS011;63484;52.054;8.518;2022-11-20T21:06:21;29.97;;;12.90;;
65715;SDS011;63484;52.054;8.518;2022-11-20T21:11:22;32.93;;;12.63;;
65715;SDS011;63484;52.054;8.518;2022-11-20T21:16:22;31.03;;;12.63;;
65715;SDS011;63484;52.054;8.518;2022-11-20T21:21:24;33.03;;;13.40;;
65715;SDS011;63484;52.054;8.518;2022-11-20T21:26:43;32.67;;;14.53;;
65715;SDS011;63484;52.054;8.518;2022-11-20T21:31:43;32.77;;;13.63;;
65715;SDS011;63484;52.054;8.518;2022-11-20T21:36:44;32.07;;;13.87;;
65715;SDS011;63484;52.054;8.518;2022-11-20T21:41:45;38.23;;;14.40;;
65715;SDS011;63484;52.054;8.518;2022-11-20T21:46:45;35.33;;;14.50;;
65715;SDS011;63484;52.054;8.518;2022-11-20T21:51:45;35.33;;;14.23;;
65715;SDS011;63484;52.054;8.518;2022-11-20T21:56:46;35.57;;;14.07;;
65715;SDS011;63484;52.054;8.518;2022-11-20T22:01:46;31.17;;;13.27;;
65715;SDS011;63484;52.054;8.518;2022-11-20T22:06:47;32.73;;;12.87;;
65715;SDS011;63484;52.054;8.518;2022-11-20T22:11:47;31.10;;;12.90;;
65715;SDS011;63484;52.054;8.518;2022-11-20T22:16:48;29.43;;;12.17;;
65715;SDS011;63484;52.054;8.518;2022-11-20T22:21:50;33.40;;;12.93;;
65715;SDS011;63484;52.054;8.518;2022-11-20T22:26:50;31.13;;;12.33;;
65715;SDS011;63484;52.054;8.518;2022-11-20T22:31:51;33.73;;;14.37;;
65715;SDS011;63484;52.054;8.518;2022-11-20T22:36:52;32.10;;;12.83;;
65715;SDS011;63484;52.054;8.518;2022-11-20T22:41:53;33.53;;;13.63;;
65715;SDS011;63484;52.054;8.518;2022-11-20T22:46:53;36.00;;;14.30;;
65715;SDS011;63484;52.054;8.518;2022-11-20T22:51:53;32.63;;;14.13;;
65715;SDS011;63484;52.054;8.518;2022-11-20T22:56:54;33.50;;;13.83;;
65715;SDS011;63484;52.054;8.518;2022-11-20T23:01:54;35.97;;;14.03;;
65715;SDS011;63484;52.054;8.518;2022-11-20T23:06:54;37.03;;;14.83;;
65715;SDS011;63484;52.054;8.518;2022-11-20T23:11:55;30.53;;;13.80;;
65715;SDS011;63484;52.054;8.518;2022-11-20T23:16:55;31.57;;;12.80;;
65715;SDS011;63484;52.054;8.518;2022-11-20T23:21:55;32.70;;;12.70;;
65715;SDS011;63484;52.054;8.518;2022-11-20T23:26:56;34.53;;;13.33;;
65715;SDS011;63484;52.054;8.518;2022-11-20T23:31:56;34.37;;;13.00;;
65715;SDS011;63484;52.054;8.518;2022-11-20T23:36:56;29.97;;;12.73;;
65715;SDS011;63484;52.054;8.518;2022-11-20T23:41:56;29.67;;;10.97;;
65715;SDS011;63484;52.054;8.518;2022-11-20T23:46:57;24.73;;;10.67;;
65715;SDS011;63484;52.054;8.518;2022-11-20T23:51:57;25.77;;;11.13;;
65715;SDS011;63484;52.054;8.518;2022-11-20T23:56:58;24.87;;;10.87;;
